Portada
METAR-TAF:

METAR-TAF

Aeroports :

Dawadmi, Aràbia Saudita

latitud: 24-26-59N, longitud: 044-07-16E, altitud: 922 m

Observació

L'informe es va fer fa 1 hora i 49 minuts, a les 21:00 UTC
Vent 8 kt del Nord-Est
Temperatura 39°C
Humitat 8%
Pressió 1010 hPa
Visibilitat 10 km o més
sense núvols per sota de 1500 mi sense presència de cumulonimbus.

METAR: OEDM 202100Z 04008KT CAVOK 39/M01 Q1010

Hora: 01:49 (22:49 UTC)

Pronòstic

L'informe es va fer fa 17 hores i 49 minuts, a les 05:00 UTC
Pronòstic vàlid del 20 a les 06 UTC al 20 a les 20 UTC
Vent 8 kt del Nord amb ràfegues de 18 kt
Visibilitat: 7000 m
Temporalment
l' 20 a les 06 UTC al 20 a les 18 UTC
Visibilitat: 3500 m
Pols estès, torb alta de pols
Evolucionant progressivament
l' 20 a les 18 UTC al 20 a les 20 UTC
Vent 6 kt del Est/Nord-Est

TAF: OEDM 200500Z 2006/2020 36008G18KT 7000 NSC TEMPO 2006/2018 3500 DU BLDU BECMG 2018/2020 060006KT

Observacions i pronòstics meteorològics de més de 4000 aeroports (METAR i TAF).

Les estacions disponibles són els punts grocs i vermells al mapa.

Posi el ratolí al punt desitjat per veure el nom de l'estació.

Feu clic per veure les observacions i els pronòstics meteorològics.

Per canviar el mapa: feu clic els botons verds amb una creu de color negre per apropar; al botó verd amb un guió per allunyar la imatge; o en les fletxes verdes per a mapes adjacents.


METAR-TAF: